Terminal Aerodrome Forecast
Issued by NWS Jackson, KY

Home | Current Version | Previous Version | Text Only | Print | Product List | Glossary On
Versions: 1 2 3 4 5 6 7 8 9 10 11 12 13 14 15 16 17
094
FTUS43 KJKL 190540
TAFLOZ
TAF
KLOZ 190540Z 1906/2006 17006KT P6SM VCSH OVC030 WS020/20040KT
     FM191300 19010G17KT P6SM BKN045
     FM200300 19008KT P6SM BKN200 WS020/20040KT=

USA.gov is the U.S. government's official web portal to all federal, state and local government web resources and services.